Aeroporto :
LOGIN :

Iscrizione | Disclaimer

   EN    FR    IT 

 










Sommario :    VFR   VFR Marginale   IFR   IFR Intensivo   IFR Molto Intensivo
Visibilità : 
Base nubi : 
>= 8 km
>= 3000ft
5 / 8 km
1000 / 3000 ft
1500m / 5 km
500 / 1000 ft
800 / 1500m
200 / 500 ft
< 800m
< 200 ft
Simboli :   Temporali  Nebbia  Neve Forte  Precipitazioni Forti  Vento > 20 kt
SIGMETs :   Varie  Temporali  Ghiacco  Turbolenza  Onda orograficha  Ceneri Vulcaniche






- Altitudine del aeroporto : 778 ft
- Codice IATA : BRQ


LKTB - Brno-Turany

ULTIMO METAR :
  • 072130Z VRB01KT CAVOK 02/01 Q1017 NOSIG

METARs OBSOLETI :
  • 072100Z 29003KT CAVOK 02/01 Q1016 NOSIG
  • 072030Z 04004KT 9000 NSC 02/01 Q1016 NOSIG
  • 072000Z 00000KT 7000 NSC 01/00 Q1016 NOSIG
  • 071930Z 04005KT 8000 NSC 02/01 Q1016 NOSIG
  • 071900Z VRB01KT 7000 NSC 02/01 Q1016 NOSIG

TAF TAF LKTB
Valido dal 07 a 18 ore il 09 a 00 ore UTC


071700Z 0718/0900 VRB02KT 9999 SCT045
BECMG 0800/0803 5000 BR SCT006
BECMG 0803/0805 2000 BR SCT004
TEMPO 0805/0810 0900 FG BKN004
BECMG 0810/0812 20005KT 9999 SCT020
BECMG 0819/0821 4000 BR BKN006
TEMPO 0821/0900 0900 FG BKN004



MetMap, La meteo Aeronautica in un colpo d'occhio ! - Copyright ORBIFLY Dicembre 2007 - Disclaimer

ORBIFLY MET'MAP TEAM :

Programmazione e sviluppo : Alexandra Zaïnal
Concezione : Baudouin d'Aumeries
Aiuto per la programmazione : Marc-Olivier Méhu
Supporto tecnico e logistico : Manuel Goepfert
Aiuto per la traduzione : Arnaldo La Scala

Contatto : metmap@orbifly.com




FONTI E CREDITI :

   NOAA